createdAt,value
2019-05-07T00:01:27.088Z,6.30
2019-05-07T00:03:57.476Z,6.20
2019-05-07T00:06:27.976Z,6.10
2019-05-07T00:08:58.529Z,6.00
2019-05-07T00:11:28.961Z,6.00
2019-05-07T00:13:59.518Z,6.00
2019-05-07T00:16:32.411Z,6.00
2019-05-07T00:19:02.190Z,6.00
2019-05-07T00:21:33.723Z,6.00
2019-05-07T00:24:04.395Z,5.90
2019-05-07T00:26:35.164Z,5.90
2019-05-07T00:29:05.690Z,5.90
2019-05-07T00:31:37.293Z,5.80
2019-05-07T00:34:07.788Z,5.70
2019-05-07T00:36:47.009Z,5.60
2019-05-07T00:39:30.076Z,5.50
2019-05-07T00:42:09.110Z,5.40
2019-05-07T00:44:56.912Z,5.40
2019-05-07T00:47:27.903Z,5.40
2019-05-07T00:50:03.293Z,5.30
2019-05-07T00:52:33.747Z,5.20
2019-05-07T00:55:04.882Z,5.10
2019-05-07T00:57:35.618Z,5.10
2019-05-07T01:00:06.963Z,4.90
2019-05-07T01:02:37.515Z,4.90
2019-05-07T01:05:08.552Z,4.90
2019-05-07T01:07:42.162Z,4.80
2019-05-07T01:10:14.253Z,4.80
2019-05-07T01:12:45.035Z,4.80
2019-05-07T01:15:27.962Z,4.80
2019-05-07T01:17:48.080Z,4.80
2019-05-07T01:20:18.805Z,4.90
2019-05-07T01:22:49.873Z,4.80
2019-05-07T01:25:22.052Z,4.80
2019-05-07T01:27:53.334Z,4.70
2019-05-07T01:30:24.465Z,4.60
2019-05-07T01:33:04.468Z,4.50
2019-05-07T01:35:54.389Z,4.50
2019-05-07T01:38:24.798Z,4.40
2019-05-07T01:40:55.442Z,4.40
2019-05-07T01:43:26.012Z,4.30
2019-05-07T01:45:56.618Z,4.30
2019-05-07T01:48:32.211Z,4.30
2019-05-07T01:51:03.399Z,4.30
2019-05-07T01:53:34.150Z,4.20
2019-05-07T01:56:04.691Z,4.10
2019-05-07T01:58:35.229Z,4.10
2019-05-07T02:01:05.888Z,4.10
2019-05-07T02:03:48.850Z,4.00
2019-05-07T02:06:29.075Z,3.90
2019-05-07T02:09:18.772Z,3.90
2019-05-07T02:12:08.310Z,3.80
2019-05-07T02:14:39.829Z,3.70
2019-05-07T02:17:10.389Z,3.60
2019-05-07T02:19:42.486Z,3.60
2019-05-07T02:22:13.463Z,3.60
2019-05-07T02:24:44.233Z,3.60
2019-05-07T02:27:14.855Z,3.60
2019-05-07T02:29:45.338Z,3.60
2019-05-07T02:32:16.048Z,3.70
2019-05-07T02:34:46.611Z,3.70
2019-05-07T02:37:23.244Z,3.70
2019-05-07T02:40:09.002Z,3.70
2019-05-07T02:42:39.569Z,3.60
2019-05-07T02:45:20.160Z,3.60
2019-05-07T02:47:52.535Z,3.60
2019-05-07T02:50:29.225Z,3.50
2019-05-07T02:53:09.443Z,3.40
2019-05-07T02:55:43.805Z,3.30
2019-05-07T02:58:14.519Z,3.20
2019-05-07T03:00:45.113Z,3.10
2019-05-07T03:03:15.720Z,3.00
2019-05-07T03:05:46.478Z,2.90
2019-05-07T03:08:17.145Z,2.80
2019-05-07T03:10:47.823Z,2.70
2019-05-07T03:13:18.393Z,2.80
2019-05-07T03:15:49.145Z,2.80
2019-05-07T03:18:19.771Z,2.80
2019-05-07T03:21:03.425Z,2.80
2019-05-07T03:23:42.920Z,2.70
2019-05-07T03:26:22.877Z,2.80
2019-05-07T03:28:55.413Z,2.80
2019-05-07T03:31:46.910Z,2.80
2019-05-07T03:34:37.351Z,2.80
2019-05-07T03:37:13.284Z,2.80
2019-05-07T03:39:43.221Z,2.80
2019-05-07T03:42:14.171Z,2.80
2019-05-07T03:44:56.559Z,2.70
2019-05-07T03:47:36.330Z,2.70
2019-05-07T03:50:14.243Z,2.70
2019-05-07T03:52:43.172Z,2.80
2019-05-07T03:55:14.960Z,2.80
2019-05-07T03:57:45.564Z,2.90
2019-05-07T04:00:17.154Z,2.90
2019-05-07T04:02:47.651Z,3.00
2019-05-07T04:05:18.693Z,3.10
2019-05-07T04:07:49.093Z,3.20
2019-05-07T04:10:22.949Z,3.20
2019-05-07T04:12:53.268Z,3.30
2019-05-07T04:15:24.306Z,3.50
2019-05-07T04:17:54.835Z,3.60
2019-05-07T04:20:25.549Z,3.70
2019-05-07T04:22:56.478Z,3.80
2019-05-07T04:25:34.780Z,3.90
2019-05-07T04:28:24.638Z,4.10
2019-05-07T04:30:56.742Z,4.30
2019-05-07T04:33:33.379Z,4.40
2019-05-07T04:36:14.097Z,4.50
2019-05-07T04:38:44.570Z,4.70
2019-05-07T04:41:15.181Z,4.80
2019-05-07T04:43:45.780Z,5.00
2019-05-07T04:46:16.331Z,5.20
2019-05-07T04:48:46.878Z,5.30
2019-05-07T04:51:23.276Z,5.50
2019-05-07T04:53:54.446Z,5.50
2019-05-07T04:56:25.286Z,5.70
2019-05-07T04:58:55.713Z,5.80
2019-05-07T05:01:27.941Z,5.90
2019-05-07T05:03:58.392Z,6.00
2019-05-07T05:06:29.622Z,6.10
2019-05-07T05:09:19.349Z,6.20
2019-05-07T05:11:52.910Z,6.30
2019-05-07T05:14:23.023Z,6.50
2019-05-07T05:16:53.829Z,6.60
2019-05-07T05:19:24.365Z,6.60
2019-05-07T05:22:08.093Z,6.70
2019-05-07T05:24:42.584Z,6.80
2019-05-07T05:27:13.407Z,6.90
2019-05-07T05:29:43.958Z,7.00
2019-05-07T05:32:14.580Z,7.00
2019-05-07T05:34:45.215Z,7.10
2019-05-07T05:37:16.771Z,7.30
2019-05-07T05:39:47.191Z,7.40
2019-05-07T05:42:27.867Z,7.50
2019-05-07T05:44:58.605Z,7.50
2019-05-07T05:47:29.330Z,7.60
2019-05-07T05:50:01.945Z,7.70
2019-05-07T05:52:39.421Z,7.80
2019-05-07T05:55:16.507Z,7.90
2019-05-07T05:57:54.531Z,8.00
2019-05-07T06:00:44.182Z,8.10
2019-05-07T06:03:33.961Z,8.30
2019-05-07T06:06:23.613Z,8.40
2019-05-07T06:09:12.882Z,8.60
2019-05-07T06:11:55.401Z,8.80
2019-05-07T06:14:45.285Z,8.80
2019-05-07T06:17:28.991Z,8.90
2019-05-07T06:20:12.215Z,9.00
2019-05-07T06:22:52.887Z,9.10
2019-05-07T06:25:24.934Z,9.10
2019-05-07T06:27:55.858Z,9.20
2019-05-07T06:30:26.435Z,9.30
2019-05-07T06:32:56.973Z,9.40
2019-05-07T06:35:27.636Z,9.50
2019-05-07T06:37:58.160Z,9.50
2019-05-07T06:40:35.218Z,9.70
2019-05-07T06:43:15.072Z,9.70
2019-05-07T06:45:51.744Z,9.70
2019-05-07T06:48:37.191Z,9.80
2019-05-07T06:50:57.602Z,10.00
2019-05-07T06:53:29.872Z,10.00
2019-05-07T06:56:02.880Z,10.00
2019-05-07T06:58:43.053Z,10.00
2019-05-07T07:01:32.903Z,10.00
2019-05-07T07:04:08.945Z,10.20
2019-05-07T07:06:58.722Z,10.20
2019-05-07T07:09:35.060Z,10.20
2019-05-07T07:12:09.502Z,10.40
2019-05-07T07:14:42.240Z,10.50
2019-05-07T07:17:13.019Z,10.50
2019-05-07T07:19:44.035Z,10.60
2019-05-07T07:22:16.080Z,10.60
2019-05-07T07:24:46.611Z,10.50
2019-05-07T07:27:17.689Z,10.50
2019-05-07T07:29:54.708Z,10.50
2019-05-07T07:32:32.390Z,10.70
2019-05-07T07:35:03.436Z,10.80
2019-05-07T07:37:38.332Z,11.00
2019-05-07T07:40:29.149Z,11.10
2019-05-07T07:42:59.804Z,11.00
2019-05-07T07:45:32.461Z,11.30
2019-05-07T07:48:03.013Z,11.40
2019-05-07T07:50:33.635Z,11.60
2019-05-07T07:53:04.589Z,12.00
2019-05-07T07:55:54.353Z,12.20
2019-05-07T07:58:36.779Z,12.10
2019-05-07T08:01:19.950Z,12.20
2019-05-07T08:03:52.253Z,12.40
2019-05-07T08:06:22.988Z,12.20
2019-05-07T08:08:54.034Z,12.30
2019-05-07T08:11:24.694Z,12.50
2019-05-07T08:13:55.388Z,12.50
2019-05-07T08:16:26.027Z,12.20
2019-05-07T08:18:56.780Z,12.30
2019-05-07T08:21:27.381Z,12.00
2019-05-07T08:23:58.003Z,11.80
2019-05-07T08:26:28.781Z,11.40
2019-05-07T08:28:59.616Z,11.50
2019-05-07T08:31:49.274Z,11.70
2019-05-07T08:34:28.111Z,12.00
2019-05-07T08:36:58.873Z,12.50
2019-05-07T08:39:29.690Z,12.90
2019-05-07T08:42:02.104Z,13.10
2019-05-07T08:44:42.984Z,13.10
2019-05-07T08:47:26.635Z,13.00
2019-05-07T08:49:57.296Z,13.20
2019-05-07T08:52:28.097Z,13.50
2019-05-07T08:54:58.664Z,13.70
2019-05-07T08:57:31.683Z,13.70
2019-05-07T09:00:04.617Z,13.80
2019-05-07T09:02:33.892Z,13.80
2019-05-07T09:05:05.129Z,13.60
2019-05-07T09:07:35.895Z,13.30
2019-05-07T09:10:07.253Z,13.20
2019-05-07T09:12:37.730Z,13.30
2019-05-07T09:15:08.412Z,13.40
2019-05-07T09:17:39.090Z,13.60
2019-05-07T09:20:09.854Z,13.80
2019-05-07T09:22:42.534Z,13.90
2019-05-07T09:25:13.209Z,13.90
2019-05-07T09:27:48.760Z,13.90
2019-05-07T09:30:28.577Z,13.80
2019-05-07T09:33:18.738Z,13.30
2019-05-07T09:35:52.867Z,12.80
2019-05-07T09:38:23.747Z,12.60
2019-05-07T09:40:56.891Z,12.80
2019-05-07T09:43:26.738Z,13.50
2019-05-07T09:45:57.349Z,14.00
2019-05-07T09:48:28.240Z,14.10
2019-05-07T09:50:58.891Z,14.00
2019-05-07T09:53:32.162Z,13.90
2019-05-07T09:56:03.069Z,13.80
2019-05-07T09:58:38.486Z,13.80
2019-05-07T10:01:05.943Z,13.60
2019-05-07T10:03:36.584Z,13.40
2019-05-07T10:06:08.611Z,13.30
2019-05-07T10:08:39.327Z,14.00
2019-05-07T10:11:12.219Z,14.50
2019-05-07T10:13:47.560Z,14.20
2019-05-07T10:16:24.217Z,13.90
2019-05-07T10:18:54.959Z,13.50
2019-05-07T10:21:25.850Z,13.40
2019-05-07T10:23:56.651Z,13.40
2019-05-07T10:26:27.296Z,13.50
2019-05-07T10:28:58.168Z,13.80
2019-05-07T10:31:29.368Z,13.90
2019-05-07T10:34:03.049Z,13.90
2019-05-07T10:36:33.838Z,13.80
2019-05-07T10:39:06.157Z,13.80
2019-05-07T10:41:38.154Z,14.10
2019-05-07T10:44:11.912Z,14.50
2019-05-07T10:47:02.101Z,15.00
2019-05-07T10:49:42.258Z,14.60
2019-05-07T10:52:13.078Z,14.40
2019-05-07T10:54:56.527Z,14.20
2019-05-07T10:57:16.373Z,14.00
2019-05-07T10:59:47.134Z,13.40
2019-05-07T11:02:25.739Z,13.10
2019-05-07T11:04:56.667Z,13.30
2019-05-07T11:07:27.327Z,14.20
2019-05-07T11:09:57.987Z,14.80
2019-05-07T11:12:28.622Z,14.90
2019-05-07T11:14:59.334Z,14.70
2019-05-07T11:17:41.800Z,14.60
2019-05-07T11:20:13.088Z,14.30
2019-05-07T11:22:43.808Z,14.10
2019-05-07T11:25:15.294Z,14.10
2019-05-07T11:27:45.848Z,14.30
2019-05-07T11:30:17.034Z,14.50
2019-05-07T11:32:47.738Z,14.80
2019-05-07T11:35:19.218Z,14.80
2019-05-07T11:37:51.858Z,14.50
2019-05-07T11:40:23.852Z,14.40
2019-05-07T11:43:13.505Z,14.30
2019-05-07T11:45:49.879Z,14.30
2019-05-07T11:48:22.131Z,14.50
2019-05-07T11:51:03.759Z,14.50
2019-05-07T11:53:32.732Z,15.20
2019-05-07T11:56:03.879Z,16.30
2019-05-07T11:58:34.459Z,16.70
2019-05-07T12:01:16.192Z,17.10
2019-05-07T12:03:58.699Z,17.10
2019-05-07T12:06:29.433Z,17.30
2019-05-07T12:09:00.186Z,17.10
2019-05-07T12:11:32.198Z,15.90
2019-05-07T12:14:02.870Z,15.50
2019-05-07T12:16:33.743Z,15.20
2019-05-07T12:19:05.274Z,14.10
2019-05-07T12:21:35.950Z,13.70
2019-05-07T12:24:06.617Z,14.50
2019-05-07T12:26:38.846Z,15.30
2019-05-07T12:29:11.643Z,15.00
2019-05-07T12:32:02.479Z,15.30
2019-05-07T12:34:37.589Z,16.10
2019-05-07T12:37:12.111Z,15.50
2019-05-07T12:39:42.416Z,15.50
2019-05-07T12:42:13.502Z,16.60
2019-05-07T12:44:44.494Z,18.40
2019-05-07T12:47:15.328Z,18.50
2019-05-07T12:49:45.953Z,17.70
2019-05-07T12:52:24.116Z,16.60
2019-05-07T12:55:03.247Z,16.00
2019-05-07T12:57:35.463Z,15.20
2019-05-07T13:00:26.539Z,14.70
2019-05-07T13:03:16.347Z,14.40
2019-05-07T13:05:47.034Z,14.00
2019-05-07T13:08:17.799Z,13.80
2019-05-07T13:10:48.383Z,13.70
2019-05-07T13:13:19.139Z,14.20
2019-05-07T13:15:51.670Z,15.60
2019-05-07T13:18:22.751Z,16.60
2019-05-07T13:20:53.598Z,16.50
2019-05-07T13:23:24.429Z,16.10
2019-05-07T13:25:55.065Z,15.30
2019-05-07T13:28:26.011Z,14.90
2019-05-07T13:30:56.719Z,14.40
2019-05-07T13:33:28.484Z,14.10
2019-05-07T13:35:59.432Z,14.20
2019-05-07T13:38:51.890Z,15.00
2019-05-07T13:41:41.628Z,15.20
2019-05-07T13:44:22.988Z,14.70
2019-05-07T13:47:13.053Z,14.60
2019-05-07T13:49:44.756Z,14.30
2019-05-07T13:52:16.242Z,14.00
2019-05-07T13:54:47.197Z,14.00
2019-05-07T13:57:17.818Z,14.20
2019-05-07T13:59:48.580Z,14.80
2019-05-07T14:02:19.694Z,15.70
2019-05-07T14:04:52.513Z,16.20
2019-05-07T14:07:23.197Z,16.60
2019-05-07T14:09:54.301Z,16.70
2019-05-07T14:12:25.118Z,16.00
2019-05-07T14:14:55.909Z,15.90
2019-05-07T14:17:26.537Z,15.70
2019-05-07T14:19:57.259Z,15.50
2019-05-07T14:22:27.902Z,15.30
2019-05-07T14:24:58.599Z,14.90
2019-05-07T14:27:29.285Z,15.10
2019-05-07T14:30:02.737Z,14.80
2019-05-07T14:32:52.672Z,14.90
2019-05-07T14:35:42.837Z,14.60
2019-05-07T14:38:22.690Z,14.40
2019-05-07T14:40:54.009Z,14.40
2019-05-07T14:43:32.417Z,14.20
2019-05-07T14:46:03.306Z,13.90
2019-05-07T14:48:36.178Z,14.10
2019-05-07T14:51:06.595Z,14.90
2019-05-07T14:53:37.163Z,15.80
2019-05-07T14:56:07.847Z,15.80
2019-05-07T14:58:38.706Z,15.50
2019-05-07T15:01:11.435Z,15.30
2019-05-07T15:03:42.422Z,15.00
2019-05-07T15:06:13.125Z,15.00
2019-05-07T15:08:44.223Z,14.60
2019-05-07T15:11:14.980Z,14.50
2019-05-07T15:13:45.599Z,14.40
2019-05-07T15:16:16.505Z,14.20
2019-05-07T15:18:54.561Z,13.80
2019-05-07T15:21:25.418Z,13.60
2019-05-07T15:23:57.386Z,13.30
2019-05-07T15:26:29.945Z,13.50
2019-05-07T15:29:12.063Z,13.70
2019-05-07T15:32:03.355Z,13.60
2019-05-07T15:34:34.249Z,13.70
2019-05-07T15:37:05.020Z,13.90
2019-05-07T15:39:35.721Z,14.20
2019-05-07T15:42:06.580Z,14.40
2019-05-07T15:44:37.277Z,14.90
2019-05-07T15:47:12.967Z,15.40
2019-05-07T15:49:43.547Z,15.60
2019-05-07T15:52:19.720Z,15.50
2019-05-07T15:54:52.103Z,15.70
2019-05-07T15:57:26.769Z,15.80
2019-05-07T16:00:06.957Z,16.30
2019-05-07T16:02:41.489Z,16.40
2019-05-07T16:05:12.643Z,16.20
2019-05-07T16:07:44.789Z,16.10
2019-05-07T16:10:15.748Z,16.30
2019-05-07T16:12:46.598Z,17.00
2019-05-07T16:15:17.590Z,17.80
2019-05-07T16:17:54.648Z,18.80
2019-05-07T16:20:25.249Z,20.10
2019-05-07T16:23:12.052Z,21.70
2019-05-07T16:25:33.264Z,22.00
2019-05-07T16:28:05.088Z,22.90
2019-05-07T16:30:38.656Z,23.00
2019-05-07T16:33:09.278Z,21.90
2019-05-07T16:35:39.882Z,21.50
2019-05-07T16:38:14.500Z,21.80
2019-05-07T16:40:43.980Z,21.10
2019-05-07T16:43:14.745Z,21.10
2019-05-07T16:45:46.560Z,20.90
2019-05-07T16:48:17.214Z,22.00
2019-05-07T16:50:47.943Z,22.10
2019-05-07T16:53:27.418Z,21.30
2019-05-07T16:55:52.259Z,20.50
2019-05-07T16:58:32.095Z,20.60
2019-05-07T17:01:06.535Z,20.30
2019-05-07T17:03:43.960Z,19.80
2019-05-07T17:06:14.664Z,19.20
2019-05-07T17:09:04.448Z,17.90
2019-05-07T17:11:36.556Z,15.80
2019-05-07T17:14:07.561Z,14.80
2019-05-07T17:16:38.132Z,14.10
2019-05-07T17:19:11.668Z,13.40
2019-05-07T17:21:43.059Z,13.20
2019-05-07T17:24:13.848Z,12.80
2019-05-07T17:26:44.442Z,12.50
2019-05-07T17:29:15.013Z,12.30
2019-05-07T17:31:45.458Z,12.00
2019-05-07T17:34:17.315Z,11.80
2019-05-07T17:36:47.969Z,11.60
2019-05-07T17:39:18.698Z,11.50
2019-05-07T17:41:51.730Z,11.30
2019-05-07T17:44:23.288Z,11.20
2019-05-07T17:46:54.026Z,11.00
2019-05-07T17:49:25.938Z,10.80
2019-05-07T17:51:56.759Z,10.60
2019-05-07T17:54:39.462Z,10.40
2019-05-07T17:57:10.064Z,10.40
2019-05-07T17:59:42.169Z,10.20
2019-05-07T18:02:21.876Z,10.00
2019-05-07T18:04:54.562Z,9.80
2019-05-07T18:07:24.413Z,9.60
2019-05-07T18:09:55.238Z,9.50
2019-05-07T18:12:25.867Z,9.30
2019-05-07T18:14:59.087Z,9.10
2019-05-07T18:17:44.951Z,8.90
2019-05-07T18:20:15.914Z,8.70
2019-05-07T18:22:46.737Z,8.50
2019-05-07T18:25:18.510Z,8.40
2019-05-07T18:27:49.527Z,8.20
2019-05-07T18:30:22.157Z,8.20
2019-05-07T18:32:58.559Z,8.10
2019-05-07T18:35:29.121Z,7.90
2019-05-07T18:37:59.575Z,7.80
2019-05-07T18:40:30.367Z,7.80
2019-05-07T18:43:03.090Z,7.80
2019-05-07T18:45:33.981Z,7.70
2019-05-07T18:48:05.017Z,7.60
2019-05-07T18:50:36.848Z,7.20
2019-05-07T18:53:12.195Z,7.00
2019-05-07T18:55:45.750Z,6.70
2019-05-07T18:58:18.730Z,6.60
2019-05-07T19:00:54.065Z,6.50
2019-05-07T19:03:26.432Z,6.30
2019-05-07T19:05:57.975Z,6.20
2019-05-07T19:08:28.928Z,6.30
2019-05-07T19:11:01.654Z,6.20
2019-05-07T19:13:35.764Z,6.20
2019-05-07T19:16:08.582Z,6.00
2019-05-07T19:18:40.190Z,6.10
2019-05-07T19:21:11.081Z,6.00
2019-05-07T19:23:42.469Z,6.10
2019-05-07T19:26:15.319Z,6.00
2019-05-07T19:28:46.917Z,5.80
2019-05-07T19:31:17.675Z,5.50
2019-05-07T19:33:52.542Z,5.20
2019-05-07T19:36:23.603Z,4.90
2019-05-07T19:38:54.307Z,4.70
2019-05-07T19:41:25.021Z,4.40
2019-05-07T19:43:55.691Z,4.20
2019-05-07T19:46:26.268Z,4.20
2019-05-07T19:48:56.685Z,4.00
2019-05-07T19:51:27.176Z,3.90
2019-05-07T19:53:57.774Z,3.90
2019-05-07T19:56:28.356Z,3.80
2019-05-07T19:58:58.843Z,3.90
2019-05-07T20:01:34.801Z,4.10
2019-05-07T20:04:05.337Z,4.50
2019-05-07T20:06:35.918Z,4.80
2019-05-07T20:09:12.454Z,5.00
2019-05-07T20:11:45.620Z,5.20
2019-05-07T20:14:16.340Z,5.20
2019-05-07T20:16:48.804Z,5.30
2019-05-07T20:19:19.381Z,5.40
2019-05-07T20:21:52.243Z,5.30
2019-05-07T20:24:22.258Z,5.10
2019-05-07T20:26:52.844Z,4.90
2019-05-07T20:29:24.660Z,4.70
2019-05-07T20:31:58.430Z,4.50
2019-05-07T20:34:29.006Z,4.30
2019-05-07T20:37:01.926Z,4.20
2019-05-07T20:39:32.368Z,4.20
2019-05-07T20:42:03.206Z,4.10
2019-05-07T20:44:33.979Z,4.00
2019-05-07T20:47:04.908Z,3.90
2019-05-07T20:49:35.736Z,3.70
2019-05-07T20:52:06.403Z,3.50
2019-05-07T20:54:50.312Z,3.40
2019-05-07T20:57:24.250Z,3.40
2019-05-07T20:59:54.860Z,3.20
2019-05-07T21:02:25.601Z,3.10
2019-05-07T21:04:57.963Z,2.90
2019-05-07T21:07:28.500Z,2.70
2019-05-07T21:10:02.105Z,2.60
2019-05-07T21:12:42.553Z,2.40
2019-05-07T21:15:13.078Z,2.50
2019-05-07T21:17:45.560Z,2.50
2019-05-07T21:20:16.297Z,2.50
2019-05-07T21:22:46.934Z,2.50
2019-05-07T21:25:17.563Z,2.40
2019-05-07T21:27:48.052Z,2.20
2019-05-07T21:30:18.728Z,2.10
2019-05-07T21:32:49.260Z,2.10
2019-05-07T21:35:22.260Z,2.10
2019-05-07T21:37:52.876Z,2.00
2019-05-07T21:40:23.387Z,1.80
2019-05-07T21:42:53.879Z,1.70
2019-05-07T21:45:24.761Z,1.50
2019-05-07T21:47:55.289Z,1.20
2019-05-07T21:50:25.918Z,1.10
2019-05-07T21:53:02.805Z,1.00
2019-05-07T21:55:59.898Z,0.90
2019-05-07T21:58:37.775Z,0.80
2019-05-07T22:01:27.270Z,0.80
2019-05-07T22:03:59.149Z,0.70
2019-05-07T22:06:29.680Z,0.60
2019-05-07T22:09:02.022Z,0.60
2019-05-07T22:11:33.659Z,0.50
2019-05-07T22:14:04.319Z,0.40
2019-05-07T22:16:34.776Z,0.40
2019-05-07T22:19:05.938Z,0.40
2019-05-07T22:21:36.383Z,0.30
2019-05-07T22:24:07.031Z,0.30
2019-05-07T22:26:37.578Z,0.10
2019-05-07T22:29:12.323Z,0.00
2019-05-07T22:32:02.727Z,0.00
2019-05-07T22:34:43.150Z,-0.10
2019-05-07T22:37:15.322Z,0.00
2019-05-07T22:39:47.439Z,0.10
2019-05-07T22:42:19.649Z,0.10
2019-05-07T22:44:50.282Z,0.10
2019-05-07T22:47:22.628Z,0.10
2019-05-07T22:49:54.438Z,0.00
2019-05-07T22:52:25.175Z,-0.10
2019-05-07T22:54:55.750Z,-0.10
2019-05-07T22:57:36.642Z,-0.10
2019-05-07T23:00:12.034Z,-0.20
2019-05-07T23:02:43.297Z,-0.20
2019-05-07T23:05:13.787Z,-0.30
2019-05-07T23:07:44.417Z,-0.30
2019-05-07T23:10:16.136Z,-0.30
2019-05-07T23:12:46.711Z,-0.30
2019-05-07T23:15:17.488Z,-0.30
2019-05-07T23:17:48.192Z,-0.40
2019-05-07T23:20:19.030Z,-0.40
2019-05-07T23:22:49.591Z,-0.50
2019-05-07T23:25:20.058Z,-0.60
2019-05-07T23:27:52.503Z,-0.60
2019-05-07T23:30:23.327Z,-0.60
2019-05-07T23:32:53.960Z,-0.60
2019-05-07T23:35:24.326Z,-0.60
2019-05-07T23:37:54.911Z,-0.40
2019-05-07T23:40:36.582Z,-0.40
2019-05-07T23:43:08.332Z,-0.40
2019-05-07T23:45:38.794Z,-0.50
2019-05-07T23:48:09.239Z,-0.60
2019-05-07T23:50:41.756Z,-0.70
2019-05-07T23:53:12.940Z,-0.70
2019-05-07T23:55:43.639Z,-0.70
2019-05-07T23:58:14.268Z,-0.70
